Airfield :
LOGIN :

Register | Disclaimer

   EN    FR    IT 

 










Legend :    VFR   Marginal VFR   IFR   Intensive IFR   Very Intensive IFR
Visi :
Ceiling :
>= 8 km
>= 3000ft
5 to 8 km
1000 to 3000 ft
1500m to 5 km
500 to 1000 ft
800 to 1500m
200 to 500 ft
< 800m
< 200 ft
Symbols :   Thunderstorms  Fog  Heavy snow  Heavy precipitations  Wind > 20 kt
SIGMETs :     Misc.  Thunderstorms  Icing  Turbulence  Mountain Waves  Volcanic Ashes






- Airport Elevation : -11 ft
- IATA code : AMS


EHAM - Amsterdam Schiphol

CURRENT METAR :
  • 032025Z 32003KT 2200 BR OVC003 04/04 Q1026 NOSIG

EXPIRED METARs :
  • 031955Z 35004KT 290V030 2200 BR OVC003 04/04 Q1026 NOSIG
  • 031925Z 31006KT 270V010 2300 BR OVC003 04/04 Q1026 NOSIG
  • 031855Z 33004KT 300V010 2500 BR OVC003 04/04 Q1026 NOSIG
  • 031825Z 31004KT 2700 BR SCT003 OVC004 04/03 Q1026 BECMG BKN003
  • 031755Z 35005KT 320V030 3000 BR FEW003 OVC004 04/03 Q1026 TEMPO 2500 BKN003

TAF TAF EHAM
Valid from the 03 at 18:00 until the 05 at 00:00 UTC


031708Z 0318/0424 35005KT 4000 BR BKN005
PROB40 0318/0403 2000 BKN002
TEMPO 0323/0408 -RA -SHRA BKN005 FEW025CB
BECMG 0408/0411 9999 NSW BKN012
PROB30
TEMPO 0408/0414 7000 -RA
BECMG 0413/0416 35012KT SCT022
BECMG 0418/0421 02009KT



MET'MAP, your aeronautical weather chart ! - Copyright ORBIFLY December 2007 - Disclaimer

ORBIFLY MET'MAP TEAM :

Programming & Development : Alexandra Zaïnal
Concept & original design : Baudouin d'Aumeries
Assistance for programming : Marc-Olivier Méhu
Technical & hardware support : Manuel Goepfert

Contact : metmap@orbifly.com




SOURCES & CREDITS :

   NOAA